Time;durP1;ratioP1;P1;durP2;ratioP2;P2;SDS_P1;SDS_P2;PMS_P1;PMS_P2;Temp;Humidity;BMP_temperature;BMP_pressure;BME280_temperature;BME280_humidity;BME280_pressure;Samples;Min_cycle;Max_cycle;Signal;HPM_P1;HPM_P2
2021/12/26 00:02:24;;;;;;;4.53;1.90;;;;;;;;;;5036488;28;20094;-78
2021/12/26 00:04:52;;;;;;;4.43;1.63;;;;;;;;;;5039200;28;20068;-77
2021/12/26 00:07:18;;;;;;;3.15;1.70;;;;;;;;;;5040271;28;20046;-78
2021/12/26 00:09:45;;;;;;;3.28;1.58;;;;;;;;;;5043851;28;20084;-77
2021/12/26 00:12:11;;;;;;;2.97;1.63;;;;;;;;;;5041221;28;20034;-78
2021/12/26 00:14:37;;;;;;;3.28;1.70;;;;;;;;;;5040281;28;20272;-78
2021/12/26 00:17:04;;;;;;;3.80;1.50;;;;;;;;;;5037343;28;20037;-78
2021/12/26 00:19:30;;;;;;;4.22;1.50;;;;;;;;;;5007234;28;20504;-78
2021/12/26 00:21:57;;;;;;;3.42;1.95;;;;;;;;;;5020374;28;20033;-77
2021/12/26 00:24:23;;;;;;;2.92;1.70;;;;;;;;;;5035881;28;20034;-78
2021/12/26 00:26:50;;;;;;;2.42;1.30;;;;;;;;;;5046914;28;20045;-78
2021/12/26 00:29:16;;;;;;;3.10;1.80;;;;;;;;;;5041376;28;20638;-78
2021/12/26 00:31:43;;;;;;;2.88;1.58;;;;;;;;;;5038535;28;20041;-77
2021/12/26 00:34:09;;;;;;;3.78;1.90;;;;;;;;;;5039144;28;20030;-77
2021/12/26 00:36:36;;;;;;;4.80;1.45;;;;;;;;;;5036049;28;20441;-77
2021/12/26 00:39:03;;;;;;;3.47;1.30;;;;;;;;;;5032036;28;20029;-77
2021/12/26 00:41:29;;;;;;;3.35;1.65;;;;;;;;;;5038765;28;20064;-78
2021/12/26 00:43:56;;;;;;;3.63;1.70;;;;;;;;;;5020331;28;20037;-78
2021/12/26 00:46:22;;;;;;;4.80;1.60;;;;;;;;;;5031863;28;20041;-76
2021/12/26 00:48:48;;;;;;;3.03;1.50;;;;;;;;;;5034729;28;20060;-77
2021/12/26 00:51:15;;;;;;;2.28;1.40;;;;;;;;;;5041119;28;20048;-77
2021/12/26 00:53:41;;;;;;;3.10;1.55;;;;;;;;;;5022022;28;20662;-77
2021/12/26 00:56:08;;;;;;;3.38;1.50;;;;;;;;;;5035535;28;20083;-77
2021/12/26 00:58:34;;;;;;;2.97;1.75;;;;;;;;;;5027930;28;20033;-77
2021/12/26 01:01:01;;;;;;;2.60;1.60;;;;;;;;;;5029326;28;20038;-78
2021/12/26 01:03:27;;;;;;;4.18;1.77;;;;;;;;;;5021510;28;20500;-78
2021/12/26 01:05:55;;;;;;;3.92;1.60;;;;;;;;;;5009291;28;20073;-77
2021/12/26 01:08:25;;;;;;;3.72;1.58;;;;;;;;;;5008655;28;20069;-78
2021/12/26 01:10:55;;;;;;;3.30;1.50;;;;;;;;;;5024453;28;20101;-78
2021/12/26 01:13:39;;;;;;;4.05;1.60;;;;;;;;;;5027255;28;20057;-77
2021/12/26 01:16:09;;;;;;;3.15;1.60;;;;;;;;;;5029675;28;20091;-78
2021/12/26 01:18:37;;;;;;;3.03;1.50;;;;;;;;;;5023921;28;20623;-77
2021/12/26 01:21:17;;;;;;;5.18;1.55;;;;;;;;;;5028140;28;20103;-78
2021/12/26 01:23:48;;;;;;;2.20;1.33;;;;;;;;;;5006564;28;20039;-78
2021/12/26 01:26:14;;;;;;;3.15;1.42;;;;;;;;;;5022773;28;20049;-77
2021/12/26 01:28:41;;;;;;;2.90;1.58;;;;;;;;;;5025960;28;20052;-77
2021/12/26 01:31:08;;;;;;;2.83;1.38;;;;;;;;;;5012619;28;20084;-77
2021/12/26 01:33:34;;;;;;;4.38;1.80;;;;;;;;;;5009791;28;20037;-77
2021/12/26 01:36:01;;;;;;;2.88;1.73;;;;;;;;;;5026805;28;20670;-77
2021/12/26 01:38:28;;;;;;;2.55;1.52;;;;;;;;;;5013268;28;20064;-78
2021/12/26 01:40:57;;;;;;;2.55;1.35;;;;;;;;;;5026356;28;20705;-77
2021/12/26 01:43:27;;;;;;;3.13;1.42;;;;;;;;;;5021394;28;20083;-78
2021/12/26 01:45:54;;;;;;;2.38;1.48;;;;;;;;;;5028113;28;20029;-77
2021/12/26 01:48:21;;;;;;;3.88;1.70;;;;;;;;;;5024865;28;20315;-77
2021/12/26 01:50:49;;;;;;;2.63;1.65;;;;;;;;;;5029534;28;20053;-77
2021/12/26 01:53:15;;;;;;;3.10;1.50;;;;;;;;;;5031246;28;20035;-76
2021/12/26 01:55:44;;;;;;;3.65;1.88;;;;;;;;;;5030673;28;20069;-78
2021/12/26 01:58:13;;;;;;;2.90;1.70;;;;;;;;;;5008052;28;20038;-78
2021/12/26 02:00:42;;;;;;;3.30;1.40;;;;;;;;;;5031615;28;20079;-78
2021/12/26 02:03:08;;;;;;;3.33;1.58;;;;;;;;;;5038727;28;20650;-77
2021/12/26 02:05:35;;;;;;;2.75;1.40;;;;;;;;;;5017782;28;20057;-77
2021/12/26 02:08:01;;;;;;;2.67;1.52;;;;;;;;;;5031610;28;20115;-77
2021/12/26 02:10:28;;;;;;;3.58;1.65;;;;;;;;;;5033309;28;20080;-77
2021/12/26 02:12:54;;;;;;;3.03;1.48;;;;;;;;;;5016359;28;20068;-77
2021/12/26 02:15:20;;;;;;;2.47;1.40;;;;;;;;;;5031654;28;20053;-77
2021/12/26 02:17:47;;;;;;;4.22;1.73;;;;;;;;;;5031080;28;20068;-77
2021/12/26 02:20:14;;;;;;;2.72;1.30;;;;;;;;;;5028371;28;20064;-77
2021/12/26 02:22:44;;;;;;;2.20;1.30;;;;;;;;;;5012919;28;20045;-76
2021/12/26 02:25:26;;;;;;;2.47;1.50;;;;;;;;;;5024749;28;20141;-77
2021/12/26 02:27:53;;;;;;;3.88;1.75;;;;;;;;;;4981693;28;21661;-78
2021/12/26 02:30:19;;;;;;;4.40;1.55;;;;;;;;;;5025721;28;20504;-77
2021/12/26 02:32:49;;;;;;;3.28;1.67;;;;;;;;;;5025577;28;20140;-77
2021/12/26 02:35:15;;;;;;;3.50;1.27;;;;;;;;;;5027941;28;20107;-77
2021/12/26 02:37:42;;;;;;;2.22;1.30;;;;;;;;;;5029637;28;20060;-77
2021/12/26 02:40:09;;;;;;;3.05;1.50;;;;;;;;;;5031162;28;20061;-77
2021/12/26 02:42:35;;;;;;;4.68;1.80;;;;;;;;;;5012440;28;20494;-77
2021/12/26 02:45:02;;;;;;;2.80;1.35;;;;;;;;;;5031190;28;20123;-77
2021/12/26 02:47:35;;;;;;;2.60;1.45;;;;;;;;;;5005932;28;20058;-77
2021/12/26 02:50:04;;;;;;;2.67;1.30;;;;;;;;;;5022215;28;20392;-77
2021/12/26 02:52:30;;;;;;;3.55;1.55;;;;;;;;;;5012845;28;20053;-77
2021/12/26 02:55:00;;;;;;;3.25;1.30;;;;;;;;;;5031413;28;20073;-77
2021/12/26 02:57:27;;;;;;;2.67;1.45;;;;;;;;;;5014414;28;20595;-77
2021/12/26 02:59:54;;;;;;;2.83;1.38;;;;;;;;;;5030604;28;20033;-77
2021/12/26 03:02:20;;;;;;;3.25;1.42;;;;;;;;;;5031924;28;20115;-77
2021/12/26 03:04:47;;;;;;;3.95;1.55;;;;;;;;;;5030130;28;20118;-77
2021/12/26 03:07:13;;;;;;;3.40;1.42;;;;;;;;;;5028732;28;20080;-78
2021/12/26 03:09:48;;;;;;;3.45;1.63;;;;;;;;;;5027555;28;20053;-78
2021/12/26 03:12:15;;;;;;;4.03;1.83;;;;;;;;;;5021007;28;20081;-77
2021/12/26 03:14:42;;;;;;;3.25;1.35;;;;;;;;;;5024036;28;20057;-76
2021/12/26 03:17:08;;;;;;;2.80;1.30;;;;;;;;;;5029926;28;20518;-77
2021/12/26 03:19:35;;;;;;;2.33;1.20;;;;;;;;;;5029127;28;20187;-77
2021/12/26 03:22:02;;;;;;;4.63;1.80;;;;;;;;;;5030344;28;20089;-77
2021/12/26 03:24:28;;;;;;;2.72;1.40;;;;;;;;;;5026090;28;20053;-77
2021/12/26 03:26:59;;;;;;;2.80;1.45;;;;;;;;;;5028297;28;20544;-77
2021/12/26 03:29:25;;;;;;;3.33;1.10;;;;;;;;;;5029578;28;20068;-78
2021/12/26 03:31:51;;;;;;;2.28;1.40;;;;;;;;;;5031724;28;20064;-77
2021/12/26 03:34:18;;;;;;;2.72;1.33;;;;;;;;;;5035622;28;20060;-77
2021/12/26 03:36:46;;;;;;;3.88;1.40;;;;;;;;;;5030882;28;20516;-77
2021/12/26 03:39:12;;;;;;;2.83;1.48;;;;;;;;;;5021360;28;20061;-76
2021/12/26 03:41:39;;;;;;;2.10;1.13;;;;;;;;;;5029492;28;20432;-77
2021/12/26 03:44:05;;;;;;;2.35;1.27;;;;;;;;;;5028290;28;20069;-77
2021/12/26 03:46:32;;;;;;;2.60;1.13;;;;;;;;;;5028687;28;22570;-77
2021/12/26 03:49:04;;;;;;;1.95;1.30;;;;;;;;;;5027823;28;20077;-78
2021/12/26 03:51:31;;;;;;;2.20;1.40;;;;;;;;;;5021655;28;20053;-78
2021/12/26 03:53:57;;;;;;;2.92;1.20;;;;;;;;;;5027737;28;20075;-77
2021/12/26 03:56:24;;;;;;;2.40;1.40;;;;;;;;;;5025470;28;20053;-77
2021/12/26 03:58:50;;;;;;;2.85;1.30;;;;;;;;;;5034521;28;20049;-77
2021/12/26 04:01:17;;;;;;;4.45;1.63;;;;;;;;;;5027213;28;20482;-77
2021/12/26 04:03:43;;;;;;;2.38;1.27;;;;;;;;;;5028039;28;20092;-77
2021/12/26 04:06:10;;;;;;;2.40;1.60;;;;;;;;;;5010766;28;20494;-77
2021/12/26 04:08:36;;;;;;;2.70;1.40;;;;;;;;;;5026084;28;20056;-77
2021/12/26 04:11:03;;;;;;;3.55;1.40;;;;;;;;;;5027059;28;20068;-78
2021/12/26 04:13:30;;;;;;;2.05;1.10;;;;;;;;;;5025344;28;20099;-77
2021/12/26 04:15:56;;;;;;;3.10;1.20;;;;;;;;;;5027827;28;20036;-77
2021/12/26 04:18:24;;;;;;;2.70;1.27;;;;;;;;;;5026743;28;20057;-76
2021/12/26 04:20:51;;;;;;;3.47;1.40;;;;;;;;;;5027894;28;20053;-77
2021/12/26 04:23:17;;;;;;;2.28;1.30;;;;;;;;;;5024039;28;20080;-76
2021/12/26 04:25:43;;;;;;;2.97;1.55;;;;;;;;;;5027584;28;20056;-77
2021/12/26 04:28:11;;;;;;;2.13;1.10;;;;;;;;;;5025275;28;20080;-76
2021/12/26 04:30:37;;;;;;;2.63;1.38;;;;;;;;;;5026374;28;20033;-76
2021/12/26 04:33:04;;;;;;;2.42;1.20;;;;;;;;;;5026928;28;20061;-78
2021/12/26 04:35:31;;;;;;;3.17;1.50;;;;;;;;;;5029045;28;20052;-78
2021/12/26 04:37:57;;;;;;;1.92;1.20;;;;;;;;;;5017935;28;20068;-76
2021/12/26 04:40:25;;;;;;;2.63;1.13;;;;;;;;;;4998505;28;20592;-77
2021/12/26 04:42:51;;;;;;;3.45;1.40;;;;;;;;;;5004232;28;20844;-78
2021/12/26 04:45:18;;;;;;;3.88;1.20;;;;;;;;;;5006215;28;20061;-77
2021/12/26 04:47:45;;;;;;;4.80;1.40;;;;;;;;;;5009703;28;20066;-76
2021/12/26 04:50:14;;;;;;;1.70;1.08;;;;;;;;;;5020725;28;20643;-76
2021/12/26 04:52:43;;;;;;;2.53;1.52;;;;;;;;;;5029924;28;20418;-77
2021/12/26 04:55:10;;;;;;;2.97;1.20;;;;;;;;;;5024505;28;20034;-76
2021/12/26 04:57:36;;;;;;;2.88;1.30;;;;;;;;;;5028247;28;20034;-77
2021/12/26 05:00:05;;;;;;;2.85;1.33;;;;;;;;;;5023959;28;20104;-76
2021/12/26 05:02:35;;;;;;;2.53;1.13;;;;;;;;;;5025891;28;20034;-78
2021/12/26 05:05:02;;;;;;;3.63;1.17;;;;;;;;;;5022244;28;20061;-77
2021/12/26 05:07:29;;;;;;;2.40;1.25;;;;;;;;;;5024624;28;20061;-77
2021/12/26 05:09:55;;;;;;;2.38;1.30;;;;;;;;;;5023123;28;20073;-77
2021/12/26 05:12:23;;;;;;;2.95;1.40;;;;;;;;;;5025771;28;20030;-76
2021/12/26 05:14:50;;;;;;;1.92;1.15;;;;;;;;;;5013246;28;20041;-77
2021/12/26 05:17:17;;;;;;;2.30;1.10;;;;;;;;;;5012925;28;20054;-77
2021/12/26 05:19:43;;;;;;;2.83;1.50;;;;;;;;;;5017485;28;20049;-77
2021/12/26 05:22:10;;;;;;;1.70;1.20;;;;;;;;;;5026200;28;20057;-75
2021/12/26 05:24:36;;;;;;;2.75;1.33;;;;;;;;;;5021935;28;20072;-77
2021/12/26 05:27:03;;;;;;;3.22;1.15;;;;;;;;;;5022727;28;20073;-76
2021/12/26 05:29:29;;;;;;;3.95;1.52;;;;;;;;;;5003785;28;20135;-77
2021/12/26 05:31:56;;;;;;;3.40;1.20;;;;;;;;;;5024363;28;20030;-77
2021/12/26 05:34:22;;;;;;;2.72;1.25;;;;;;;;;;5019626;28;20458;-76
2021/12/26 05:36:48;;;;;;;2.13;1.13;;;;;;;;;;5019370;28;20065;-77
2021/12/26 05:39:15;;;;;;;2.00;1.23;;;;;;;;;;5024281;28;20064;-77
2021/12/26 05:41:41;;;;;;;2.75;1.10;;;;;;;;;;5024820;28;20092;-77
2021/12/26 05:44:09;;;;;;;2.35;1.15;;;;;;;;;;5025997;28;20068;-77
2021/12/26 05:46:37;;;;;;;2.13;1.30;;;;;;;;;;5022487;28;20061;-77
2021/12/26 05:49:03;;;;;;;2.75;1.33;;;;;;;;;;5025704;28;20119;-77
2021/12/26 05:51:30;;;;;;;2.08;1.30;;;;;;;;;;5020416;28;20061;-77
2021/12/26 05:53:58;;;;;;;2.95;1.30;;;;;;;;;;5026703;28;20150;-77
2021/12/26 05:56:24;;;;;;;3.22;1.30;;;;;;;;;;5026860;28;20061;-77
2021/12/26 05:58:51;;;;;;;3.28;1.38;;;;;;;;;;5021496;28;20057;-76
2021/12/26 06:01:18;;;;;;;3.33;1.20;;;;;;;;;;5022763;28;20200;-77
2021/12/26 06:03:44;;;;;;;3.13;1.58;;;;;;;;;;5023561;28;20127;-77
2021/12/26 06:06:10;;;;;;;2.85;1.17;;;;;;;;;;5006575;28;20029;-77
2021/12/26 06:08:37;;;;;;;2.25;1.20;;;;;;;;;;5020570;28;20572;-77
2021/12/26 06:11:03;;;;;;;2.85;1.33;;;;;;;;;;5022833;28;20068;-76
2021/12/26 06:13:31;;;;;;;3.05;1.50;;;;;;;;;;5004847;28;20057;-77
2021/12/26 06:15:58;;;;;;;2.90;1.35;;;;;;;;;;5028454;28;20053;-76
2021/12/26 06:18:25;;;;;;;3.33;1.40;;;;;;;;;;5019713;28;20445;-77
2021/12/26 06:20:51;;;;;;;2.00;1.10;;;;;;;;;;5030246;28;20058;-77
2021/12/26 06:23:18;;;;;;;5.80;1.30;;;;;;;;;;5025767;28;20517;-77
2021/12/26 06:25:44;;;;;;;2.00;1.23;;;;;;;;;;5024676;28;20494;-78
2021/12/26 06:28:10;;;;;;;1.92;1.00;;;;;;;;;;5026431;28;20083;-76
2021/12/26 06:30:37;;;;;;;4.30;1.25;;;;;;;;;;5001058;28;20041;-77
2021/12/26 06:33:03;;;;;;;3.80;1.65;;;;;;;;;;5011728;28;20066;-77
2021/12/26 06:35:30;;;;;;;3.35;1.52;;;;;;;;;;5004365;28;20057;-78
2021/12/26 06:37:56;;;;;;;2.55;1.23;;;;;;;;;;5008362;28;20058;-76
2021/12/26 06:40:23;;;;;;;2.50;1.25;;;;;;;;;;4998577;28;20065;-76
2021/12/26 06:42:50;;;;;;;2.05;1.27;;;;;;;;;;5003193;28;20050;-77
2021/12/26 06:45:18;;;;;;;3.08;1.30;;;;;;;;;;5005276;28;20065;-77
2021/12/26 06:47:50;;;;;;;2.45;1.17;;;;;;;;;;5007173;28;20529;-76
2021/12/26 06:50:16;;;;;;;2.28;1.20;;;;;;;;;;5027846;28;20081;-77
2021/12/26 06:52:43;;;;;;;2.17;1.20;;;;;;;;;;5030238;28;20092;-77
2021/12/26 06:55:10;;;;;;;4.32;1.40;;;;;;;;;;5029865;28;20058;-77
2021/12/26 06:57:37;;;;;;;3.15;1.30;;;;;;;;;;5030090;28;20071;-76
2021/12/26 07:00:13;;;;;;;3.15;1.30;;;;;;;;;;5030537;28;20582;-77
2021/12/26 07:02:40;;;;;;;3.00;1.30;;;;;;;;;;5025447;28;20054;-77
2021/12/26 07:05:07;;;;;;;3.20;1.50;;;;;;;;;;5031293;28;20072;-76
2021/12/26 07:07:33;;;;;;;2.28;1.50;;;;;;;;;;5026255;28;20155;-77
2021/12/26 07:10:00;;;;;;;2.38;1.27;;;;;;;;;;5003688;28;20108;-77
2021/12/26 07:12:27;;;;;;;2.90;1.30;;;;;;;;;;5027422;28;20046;-78
2021/12/26 07:14:53;;;;;;;2.30;1.40;;;;;;;;;;5025776;28;20501;-78
2021/12/26 07:17:20;;;;;;;3.03;1.17;;;;;;;;;;5030057;28;20057;-77
2021/12/26 07:19:46;;;;;;;3.25;1.60;;;;;;;;;;5031870;28;20123;-78
2021/12/26 07:22:13;;;;;;;3.65;1.40;;;;;;;;;;5018709;28;20684;-78
2021/12/26 07:24:43;;;;;;;2.75;1.40;;;;;;;;;;5026120;28;20584;-78
2021/12/26 07:27:11;;;;;;;4.30;1.53;;;;;;;;;;5029603;28;20053;-77
2021/12/26 07:29:38;;;;;;;2.95;1.20;;;;;;;;;;5029796;28;20511;-79
2021/12/26 07:32:04;;;;;;;3.28;1.38;;;;;;;;;;5025564;28;20057;-79
2021/12/26 07:34:31;;;;;;;3.10;1.30;;;;;;;;;;5027081;28;20053;-78
2021/12/26 07:36:57;;;;;;;2.95;1.38;;;;;;;;;;5008646;28;20111;-78
2021/12/26 07:39:24;;;;;;;3.05;1.55;;;;;;;;;;5027244;28;20057;-78
2021/12/26 07:41:50;;;;;;;2.75;1.40;;;;;;;;;;5010289;28;20104;-78
2021/12/26 07:44:16;;;;;;;2.13;1.13;;;;;;;;;;5026372;28;20434;-78
2021/12/26 07:46:43;;;;;;;2.90;1.80;;;;;;;;;;5010643;28;20084;-78
2021/12/26 07:49:09;;;;;;;3.08;1.33;;;;;;;;;;5024806;28;20469;-78
2021/12/26 07:51:36;;;;;;;2.45;1.45;;;;;;;;;;5019490;28;20073;-78
2021/12/26 07:54:02;;;;;;;3.70;1.63;;;;;;;;;;5009771;28;20079;-78
2021/12/26 07:56:30;;;;;;;2.60;1.30;;;;;;;;;;5027556;28;20073;-77
2021/12/26 07:58:56;;;;;;;2.78;1.40;;;;;;;;;;5027466;28;20111;-78
2021/12/26 08:01:23;;;;;;;2.70;1.40;;;;;;;;;;5026719;28;20589;-78
2021/12/26 08:03:49;;;;;;;2.60;1.50;;;;;;;;;;5023093;28;20075;-78
2021/12/26 08:06:19;;;;;;;3.40;1.40;;;;;;;;;;5026712;28;20649;-77
2021/12/26 08:08:46;;;;;;;3.35;1.60;;;;;;;;;;5016999;28;20702;-78
2021/12/26 08:11:13;;;;;;;3.63;1.70;;;;;;;;;;5007712;28;20041;-78
2021/12/26 08:13:39;;;;;;;3.90;1.70;;;;;;;;;;5026510;28;20096;-78
2021/12/26 08:16:05;;;;;;;2.70;1.33;;;;;;;;;;5024494;28;20047;-78
2021/12/26 08:18:32;;;;;;;3.42;1.70;;;;;;;;;;5025177;28;20049;-78
2021/12/26 08:20:59;;;;;;;3.38;1.65;;;;;;;;;;5028601;28;20469;-78
2021/12/26 08:23:27;;;;;;;3.30;1.50;;;;;;;;;;5006520;28;20073;-80
2021/12/26 08:25:54;;;;;;;2.88;1.50;;;;;;;;;;5033344;28;20038;-77
2021/12/26 08:28:20;;;;;;;4.10;1.90;;;;;;;;;;5041376;28;20041;-76
2021/12/26 08:30:47;;;;;;;2.00;1.40;;;;;;;;;;5040736;28;20030;-79
2021/12/26 08:33:14;;;;;;;3.25;1.70;;;;;;;;;;5027619;28;20056;-79
2021/12/26 08:35:41;;;;;;;2.63;1.60;;;;;;;;;;5029336;28;20099;-77
2021/12/26 08:38:09;;;;;;;3.33;1.63;;;;;;;;;;5025492;28;20088;-77
2021/12/26 08:40:35;;;;;;;3.53;1.60;;;;;;;;;;5026432;28;20118;-77
2021/12/26 08:43:02;;;;;;;3.38;1.63;;;;;;;;;;5010612;28;20064;-78
2021/12/26 08:45:28;;;;;;;3.85;1.90;;;;;;;;;;5007170;28;20069;-77
2021/12/26 08:47:55;;;;;;;3.08;1.60;;;;;;;;;;5017157;28;20531;-78
2021/12/26 08:50:22;;;;;;;3.70;2.10;;;;;;;;;;5025943;28;20061;-76
2021/12/26 08:52:49;;;;;;;3.20;1.60;;;;;;;;;;5026629;28;20056;-76
2021/12/26 08:55:16;;;;;;;3.03;1.67;;;;;;;;;;5002298;28;20693;-77
2021/12/26 08:57:42;;;;;;;3.00;1.70;;;;;;;;;;5012686;28;20075;-79
2021/12/26 09:00:11;;;;;;;3.47;2.00;;;;;;;;;;5028647;28;20486;-77
2021/12/26 09:02:37;;;;;;;3.53;1.92;;;;;;;;;;5023625;28;20071;-78
2021/12/26 09:05:04;;;;;;;2.80;1.70;;;;;;;;;;5011122;28;20067;-77
2021/12/26 09:07:30;;;;;;;3.75;2.13;;;;;;;;;;5029553;28;20030;-78
2021/12/26 09:09:57;;;;;;;4.55;2.00;;;;;;;;;;5009867;28;20057;-79
2021/12/26 09:12:23;;;;;;;5.03;1.95;;;;;;;;;;5004816;28;20460;-79
2021/12/26 09:14:50;;;;;;;3.40;1.92;;;;;;;;;;5027551;28;20053;-78
2021/12/26 09:17:17;;;;;;;3.28;1.70;;;;;;;;;;5025785;28;20099;-79
2021/12/26 09:19:43;;;;;;;3.47;2.25;;;;;;;;;;5025929;28;20064;-77
2021/12/26 09:22:10;;;;;;;3.65;1.83;;;;;;;;;;5025023;28;20064;-76
2021/12/26 09:24:38;;;;;;;4.20;2.40;;;;;;;;;;5011047;28;20057;-77
2021/12/26 09:27:05;;;;;;;3.83;2.38;;;;;;;;;;5027373;28;20087;-77
2021/12/26 09:29:31;;;;;;;3.33;1.75;;;;;;;;;;5025003;28;20057;-78
2021/12/26 09:31:58;;;;;;;4.03;2.00;;;;;;;;;;5027079;28;20080;-78
2021/12/26 09:34:25;;;;;;;2.85;1.75;;;;;;;;;;5024274;28;20068;-77
2021/12/26 09:36:52;;;;;;;3.47;2.30;;;;;;;;;;5023298;28;20058;-77
2021/12/26 09:39:18;;;;;;;3.17;1.77;;;;;;;;;;5025416;28;20057;-77
2021/12/26 09:41:45;;;;;;;3.80;2.10;;;;;;;;;;5020457;28;20056;-78
2021/12/26 09:44:11;;;;;;;4.38;2.15;;;;;;;;;;5024412;28;20064;-77
2021/12/26 09:46:37;;;;;;;3.30;1.80;;;;;;;;;;5025723;28;20057;-77
2021/12/26 09:49:04;;;;;;;2.83;1.70;;;;;;;;;;5010180;28;20072;-77
2021/12/26 09:51:32;;;;;;;4.32;2.13;;;;;;;;;;5025356;28;20060;-77
2021/12/26 09:53:58;;;;;;;3.30;1.50;;;;;;;;;;5027798;28;20067;-77
2021/12/26 09:56:25;;;;;;;2.78;1.60;;;;;;;;;;5026181;28;20202;-79
2021/12/26 09:58:57;;;;;;;2.95;1.70;;;;;;;;;;5036979;28;20057;-80
2021/12/26 10:01:37;;;;;;;2.78;1.70;;;;;;;;;;5023476;28;20190;-77
2021/12/26 10:04:24;;;;;;;2.75;1.92;;;;;;;;;;5028325;28;20405;-78
2021/12/26 10:06:58;;;;;;;4.18;2.17;;;;;;;;;;5008275;28;20155;-77
2021/12/26 10:09:25;;;;;;;3.13;2.10;;;;;;;;;;5025869;28;20458;-77
2021/12/26 10:11:53;;;;;;;3.20;2.00;;;;;;;;;;5025866;28;20061;-77
2021/12/26 10:14:21;;;;;;;3.50;2.10;;;;;;;;;;5026190;28;20049;-78
2021/12/26 10:16:58;;;;;;;2.85;1.77;;;;;;;;;;5008390;28;20049;-79
2021/12/26 10:19:25;;;;;;;2.83;1.83;;;;;;;;;;5025422;28;20489;-77
2021/12/26 10:21:55;;;;;;;3.85;2.30;;;;;;;;;;5025890;28;20026;-77
2021/12/26 10:24:22;;;;;;;3.75;2.22;;;;;;;;;;5032591;28;20034;-77
2021/12/26 10:26:51;;;;;;;3.45;1.95;;;;;;;;;;5032545;28;20117;-78
2021/12/26 10:29:20;;;;;;;3.45;1.73;;;;;;;;;;5010551;28;20072;-78
2021/12/26 10:31:54;;;;;;;4.93;2.08;;;;;;;;;;5029395;28;20057;-77
2021/12/26 10:34:25;;;;;;;3.78;2.10;;;;;;;;;;5007047;28;20450;-79
2021/12/26 10:36:53;;;;;;;3.85;2.08;;;;;;;;;;5029413;28;20137;-76
2021/12/26 10:39:21;;;;;;;4.07;2.10;;;;;;;;;;5028833;28;20065;-77
2021/12/26 10:41:52;;;;;;;5.05;2.30;;;;;;;;;;5026947;28;20115;-77
2021/12/26 10:44:22;;;;;;;3.80;1.98;;;;;;;;;;5030823;28;20457;-77
2021/12/26 10:46:56;;;;;;;3.50;2.00;;;;;;;;;;5025187;28;20148;-77
2021/12/26 10:49:48;;;;;;;3.40;1.90;;;;;;;;;;5028374;28;20069;-78
2021/12/26 10:52:19;;;;;;;3.83;1.80;;;;;;;;;;5006020;28;20057;-78
2021/12/26 10:54:48;;;;;;;3.83;2.22;;;;;;;;;;5028831;28;20056;-77
2021/12/26 10:57:19;;;;;;;3.78;2.42;;;;;;;;;;5023950;28;20034;-77
2021/12/26 10:59:47;;;;;;;3.75;2.00;;;;;;;;;;5031998;28;20069;-77
2021/12/26 11:02:24;;;;;;;3.45;2.08;;;;;;;;;;5031620;28;20068;-77
2021/12/26 11:04:56;;;;;;;2.72;2.03;;;;;;;;;;5027328;28;20092;-76
2021/12/26 11:07:22;;;;;;;3.65;1.92;;;;;;;;;;5031898;28;20049;-77
2021/12/26 11:10:00;;;;;;;4.93;1.92;;;;;;;;;;5031711;28;20397;-77
2021/12/26 11:12:38;;;;;;;2.80;2.00;;;;;;;;;;5014398;28;20033;-76
2021/12/26 11:15:05;;;;;;;3.85;2.15;;;;;;;;;;5036090;28;20580;-76
2021/12/26 11:17:32;;;;;;;3.17;1.90;;;;;;;;;;5013770;28;20042;-78
2021/12/26 11:19:59;;;;;;;4.40;2.30;;;;;;;;;;5024170;28;20057;-77
2021/12/26 11:22:26;;;;;;;3.80;1.88;;;;;;;;;;5006921;28;20036;-77
2021/12/26 11:24:53;;;;;;;3.50;2.17;;;;;;;;;;5019596;28;20049;-77
2021/12/26 11:27:21;;;;;;;3.53;2.00;;;;;;;;;;5026441;28;20087;-78
2021/12/26 11:29:53;;;;;;;3.22;1.88;;;;;;;;;;5029966;28;20030;-81
2021/12/26 11:32:20;;;;;;;3.78;1.80;;;;;;;;;;5028800;28;20036;-77
2021/12/26 11:34:48;;;;;;;3.38;1.92;;;;;;;;;;5029285;28;20057;-78
2021/12/26 11:37:15;;;;;;;3.75;1.95;;;;;;;;;;5009309;28;20543;-77
2021/12/26 11:39:48;;;;;;;4.03;1.92;;;;;;;;;;5031664;28;20091;-78
2021/12/26 11:42:33;;;;;;;4.20;2.10;;;;;;;;;;4999604;28;20105;-77
2021/12/26 11:45:07;;;;;;;3.65;1.88;;;;;;;;;;5026969;28;20338;-77
2021/12/26 11:48:19;;;;;;;3.25;1.90;;;;;;;;;;5013449;28;20101;-79
2021/12/26 11:51:01;;;;;;;3.40;1.80;;;;;;;;;;4986730;28;20034;-77
2021/12/26 11:53:46;;;;;;;3.67;2.00;;;;;;;;;;5009280;28;20071;-78
2021/12/26 11:56:31;;;;;;;3.20;1.88;;;;;;;;;;5023146;28;20064;-77
2021/12/26 11:59:16;;;;;;;4.25;2.00;;;;;;;;;;5023541;28;21116;-79
2021/12/26 12:01:46;;;;;;;4.05;1.85;;;;;;;;;;5003285;28;21347;-78
2021/12/26 12:04:20;;;;;;;2.95;1.73;;;;;;;;;;5009113;28;20088;-78
2021/12/26 12:06:47;;;;;;;5.95;2.33;;;;;;;;;;4993542;28;20505;-77
2021/12/26 12:09:24;;;;;;;4.32;2.17;;;;;;;;;;5008950;28;20069;-77
2021/12/26 12:12:20;;;;;;;4.47;2.15;;;;;;;;;;5007973;28;20127;-78
2021/12/26 12:14:48;;;;;;;2.95;1.85;;;;;;;;;;4990505;28;20298;-77
2021/12/26 12:17:19;;;;;;;3.47;1.85;;;;;;;;;;5003634;28;20034;-78
2021/12/26 12:20:04;;;;;;;5.07;2.08;;;;;;;;;;5010178;28;20074;-78
2021/12/26 12:22:30;;;;;;;3.85;1.83;;;;;;;;;;5006907;28;20061;-77
2021/12/26 12:24:57;;;;;;;4.80;2.17;;;;;;;;;;5007610;28;20505;-77
2021/12/26 12:27:24;;;;;;;3.22;1.63;;;;;;;;;;5007294;28;20061;-77
2021/12/26 12:29:52;;;;;;;4.13;1.77;;;;;;;;;;5002807;28;20042;-78
2021/12/26 12:32:20;;;;;;;3.47;1.90;;;;;;;;;;5006279;28;20053;-77
2021/12/26 12:34:46;;;;;;;4.13;2.25;;;;;;;;;;5003434;28;20454;-77
2021/12/26 12:37:26;;;;;;;3.03;1.90;;;;;;;;;;5009134;28;20114;-78
2021/12/26 12:40:07;;;;;;;4.25;1.90;;;;;;;;;;5005778;28;21231;-77
2021/12/26 12:42:35;;;;;;;4.28;2.15;;;;;;;;;;5004133;28;20099;-77
2021/12/26 12:45:01;;;;;;;5.95;2.08;;;;;;;;;;5009116;28;20057;-78
2021/12/26 12:47:28;;;;;;;4.15;2.13;;;;;;;;;;5010168;28;20065;-78
2021/12/26 12:49:56;;;;;;;3.80;1.80;;;;;;;;;;5028806;28;20077;-78
2021/12/26 12:52:51;;;;;;;3.47;1.83;;;;;;;;;;5028322;28;20141;-77
2021/12/26 12:55:22;;;;;;;5.03;2.10;;;;;;;;;;5022528;28;20056;-78
2021/12/26 12:57:50;;;;;;;3.92;2.10;;;;;;;;;;5024120;28;20033;-76
2021/12/26 13:00:25;;;;;;;3.42;2.00;;;;;;;;;;5009173;28;20107;-78
2021/12/26 13:02:56;;;;;;;4.80;2.42;;;;;;;;;;5029084;28;20119;-77
2021/12/26 13:05:30;;;;;;;3.08;2.00;;;;;;;;;;5027547;28;20049;-78
2021/12/26 13:08:01;;;;;;;3.38;2.00;;;;;;;;;;5026988;28;20484;-79
2021/12/26 13:10:27;;;;;;;4.50;2.25;;;;;;;;;;5020783;28;20076;-78
2021/12/26 13:13:03;;;;;;;2.72;1.88;;;;;;;;;;5025608;28;20042;-78
2021/12/26 13:15:29;;;;;;;5.07;2.30;;;;;;;;;;5026150;28;20053;-78
2021/12/26 13:17:56;;;;;;;3.45;2.15;;;;;;;;;;5026801;28;20477;-77
2021/12/26 13:20:25;;;;;;;5.55;2.30;;;;;;;;;;5025515;28;20057;-77
2021/12/26 13:22:53;;;;;;;3.75;2.25;;;;;;;;;;5007435;28;20645;-77
2021/12/26 13:25:28;;;;;;;4.55;2.25;;;;;;;;;;5025497;28;20053;-78
2021/12/26 13:27:55;;;;;;;4.78;2.03;;;;;;;;;;5028183;28;20096;-77
2021/12/26 13:30:23;;;;;;;3.95;2.22;;;;;;;;;;5009792;28;20042;-77
2021/12/26 13:32:49;;;;;;;4.72;2.08;;;;;;;;;;5026642;28;20049;-79
2021/12/26 13:35:16;;;;;;;3.83;2.05;;;;;;;;;;5027360;28;20110;-78
2021/12/26 13:37:42;;;;;;;3.97;2.20;;;;;;;;;;5026639;28;20068;-78
2021/12/26 13:40:10;;;;;;;3.92;2.10;;;;;;;;;;5028716;28;20057;-78
2021/12/26 13:42:37;;;;;;;4.55;2.28;;;;;;;;;;5032252;28;20033;-77
2021/12/26 13:45:04;;;;;;;6.25;2.40;;;;;;;;;;5026757;28;20119;-79
2021/12/26 13:47:41;;;;;;;3.90;1.88;;;;;;;;;;5026013;28;20573;-78
2021/12/26 13:50:12;;;;;;;3.95;2.15;;;;;;;;;;5025654;28;20057;-78
2021/12/26 13:52:39;;;;;;;3.70;1.95;;;;;;;;;;5025154;28;20049;-77
2021/12/26 13:55:06;;;;;;;3.63;2.10;;;;;;;;;;5010579;28;20061;-77
2021/12/26 13:57:33;;;;;;;4.10;1.85;;;;;;;;;;5023970;28;20049;-79
2021/12/26 14:00:02;;;;;;;4.32;1.95;;;;;;;;;;5030570;28;20165;-77
2021/12/26 14:02:35;;;;;;;5.15;1.98;;;;;;;;;;5028459;28;20119;-77
2021/12/26 14:05:07;;;;;;;2.78;1.73;;;;;;;;;;5024894;28;20096;-78
2021/12/26 14:07:34;;;;;;;3.97;1.85;;;;;;;;;;5019048;28;20083;-78
2021/12/26 14:10:04;;;;;;;3.47;2.03;;;;;;;;;;5030222;28;20058;-78
2021/12/26 14:12:35;;;;;;;5.07;2.05;;;;;;;;;;5028430;28;20065;-77
2021/12/26 14:15:30;;;;;;;3.17;2.05;;;;;;;;;;5028376;28;20056;-78
2021/12/26 14:17:59;;;;;;;4.50;2.17;;;;;;;;;;5027064;28;21564;-78
2021/12/26 14:20:26;;;;;;;3.15;2.00;;;;;;;;;;5027566;28;20073;-77
2021/12/26 14:22:54;;;;;;;4.53;2.30;;;;;;;;;;5031020;28;20044;-78
2021/12/26 14:25:21;;;;;;;3.30;1.73;;;;;;;;;;5028889;28;20065;-77
2021/12/26 14:27:47;;;;;;;4.32;2.03;;;;;;;;;;5032507;28;20126;-79
2021/12/26 14:30:14;;;;;;;3.85;2.10;;;;;;;;;;5029472;28;20060;-78
2021/12/26 14:32:40;;;;;;;3.90;2.22;;;;;;;;;;5007901;28;21243;-77
2021/12/26 14:35:13;;;;;;;5.28;2.20;;;;;;;;;;5009307;28;20057;-78
2021/12/26 14:37:39;;;;;;;4.32;2.08;;;;;;;;;;5002231;28;20107;-77
2021/12/26 14:40:11;;;;;;;5.45;2.10;;;;;;;;;;5015620;28;20115;-78
2021/12/26 14:42:42;;;;;;;4.85;2.08;;;;;;;;;;5008954;28;20053;-79
2021/12/26 14:45:14;;;;;;;4.40;2.20;;;;;;;;;;5010099;28;20061;-78
2021/12/26 14:47:42;;;;;;;4.85;1.92;;;;;;;;;;5008181;28;20471;-78
2021/12/26 14:50:15;;;;;;;3.42;2.20;;;;;;;;;;5011593;28;20077;-77
2021/12/26 14:52:54;;;;;;;3.78;1.95;;;;;;;;;;5008658;28;21260;-77